sensor_id;sensor_type;location;lat;lon;timestamp;pressure;altitude;pressure_sealevel;temperature;humidity
55373;BME280;41249;47.838;16.490;2022-08-18T00:01:13;98502.75;;;19.89;72.47
55373;BME280;41249;47.838;16.490;2022-08-18T00:03:43;98505.53;;;19.94;73.70
55373;BME280;41249;47.838;16.490;2022-08-18T00:06:26;98499.38;;;19.72;76.17
55373;BME280;41249;47.838;16.490;2022-08-18T00:08:56;98501.91;;;19.84;76.91
55373;BME280;41249;47.838;16.490;2022-08-18T00:11:23;98509.50;;;19.38;82.48
55373;BME280;41249;47.838;16.490;2022-08-18T00:13:50;98516.38;;;19.51;79.97
55373;BME280;41249;47.838;16.490;2022-08-18T00:16:17;98520.50;;;19.58;81.72
55373;BME280;41249;47.838;16.490;2022-08-18T00:18:43;98537.56;;;19.42;85.44
55373;BME280;41249;47.838;16.490;2022-08-18T00:21:10;98545.34;;;19.38;87.22
55373;BME280;41249;47.838;16.490;2022-08-18T00:23:37;98541.84;;;19.21;89.27
55373;BME280;41249;47.838;16.490;2022-08-18T00:26:04;98548.31;;;19.20;89.33
55373;BME280;41249;47.838;16.490;2022-08-18T00:28:31;98555.81;;;19.18;88.40
55373;BME280;41249;47.838;16.490;2022-08-18T00:30:58;98563.41;;;19.21;88.31
55373;BME280;41249;47.838;16.490;2022-08-18T00:33:24;98567.72;;;19.22;88.56
55373;BME280;41249;47.838;16.490;2022-08-18T00:35:51;98569.78;;;19.15;90.08
55373;BME280;41249;47.838;16.490;2022-08-18T00:38:18;98568.22;;;19.19;87.82
55373;BME280;41249;47.838;16.490;2022-08-18T00:40:51;98573.03;;;19.17;85.02
55373;BME280;41249;47.838;16.490;2022-08-18T00:43:23;98576.84;;;18.99;85.42
55373;BME280;41249;47.838;16.490;2022-08-18T00:45:51;98569.81;;;18.98;86.19
55373;BME280;41249;47.838;16.490;2022-08-18T00:48:18;98576.25;;;18.97;83.82
55373;BME280;41249;47.838;16.490;2022-08-18T00:50:55;98576.16;;;19.09;83.75
55373;BME280;41249;47.838;16.490;2022-08-18T00:53:30;98586.38;;;19.07;83.79
55373;BME280;41249;47.838;16.490;2022-08-18T00:56:22;98581.50;;;19.26;81.98
55373;BME280;41249;47.838;16.490;2022-08-18T00:59:01;98584.16;;;19.04;83.20
55373;BME280;41249;47.838;16.490;2022-08-18T01:01:30;98581.56;;;18.75;87.21
55373;BME280;41249;47.838;16.490;2022-08-18T01:04:03;98578.81;;;18.87;85.67
55373;BME280;41249;47.838;16.490;2022-08-18T01:06:54;98584.69;;;18.84;85.87
55373;BME280;41249;47.838;16.490;2022-08-18T01:09:23;98586.16;;;18.91;85.09
55373;BME280;41249;47.838;16.490;2022-08-18T01:11:50;98585.91;;;18.76;87.45
55373;BME280;41249;47.838;16.490;2022-08-18T01:14:18;98572.91;;;18.90;86.38
55373;BME280;41249;47.838;16.490;2022-08-18T01:16:46;98574.22;;;18.87;86.61
55373;BME280;41249;47.838;16.490;2022-08-18T01:19:32;98576.19;;;18.92;86.19
55373;BME280;41249;47.838;16.490;2022-08-18T01:24:50;98570.41;;;19.22;84.38
55373;BME280;41249;47.838;16.490;2022-08-18T01:27:36;98573.25;;;18.93;87.33
55373;BME280;41249;47.838;16.490;2022-08-18T01:30:07;98567.34;;;18.97;88.20
55373;BME280;41249;47.838;16.490;2022-08-18T01:32:37;98565.50;;;18.80;89.84
55373;BME280;41249;47.838;16.490;2022-08-18T01:35:07;98563.53;;;18.92;89.08
55373;BME280;41249;47.838;16.490;2022-08-18T01:37:36;98562.34;;;18.83;90.74
55373;BME280;41249;47.838;16.490;2022-08-18T01:40:07;98560.44;;;18.67;93.54
55373;BME280;41249;47.838;16.490;2022-08-18T01:42:54;98553.03;;;18.74;93.13
55373;BME280;41249;47.838;16.490;2022-08-18T01:45:22;98553.75;;;18.86;91.93
55373;BME280;41249;47.838;16.490;2022-08-18T01:47:49;98552.22;;;18.90;91.53
55373;BME280;41249;47.838;16.490;2022-08-18T01:50:16;98565.72;;;18.96;90.95
55373;BME280;41249;47.838;16.490;2022-08-18T01:52:43;98562.16;;;18.73;94.68
55373;BME280;41249;47.838;16.490;2022-08-18T01:55:10;98567.56;;;18.73;95.83
55373;BME280;41249;47.838;16.490;2022-08-18T01:57:40;98563.22;;;18.55;99.19
55373;BME280;41249;47.838;16.490;2022-08-18T02:00:13;98563.19;;;18.38;100.00
55373;BME280;41249;47.838;16.490;2022-08-18T02:02:40;98563.75;;;18.24;100.00
55373;BME280;41249;47.838;16.490;2022-08-18T02:05:35;98564.91;;;18.45;100.00
55373;BME280;41249;47.838;16.490;2022-08-18T02:08:04;98555.63;;;18.35;100.00
55373;BME280;41249;47.838;16.490;2022-08-18T02:10:31;98552.00;;;18.13;100.00
55373;BME280;41249;47.838;16.490;2022-08-18T02:12:59;98550.47;;;17.89;100.00
55373;BME280;41249;47.838;16.490;2022-08-18T02:15:25;98545.16;;;18.05;100.00
55373;BME280;41249;47.838;16.490;2022-08-18T02:17:53;98547.56;;;17.90;100.00
55373;BME280;41249;47.838;16.490;2022-08-18T02:20:20;98547.69;;;18.12;100.00
55373;BME280;41249;47.838;16.490;2022-08-18T02:22:47;98542.66;;;17.87;100.00
55373;BME280;41249;47.838;16.490;2022-08-18T02:25:15;98550.53;;;18.05;100.00
55373;BME280;41249;47.838;16.490;2022-08-18T02:27:43;98548.69;;;17.94;100.00
55373;BME280;41249;47.838;16.490;2022-08-18T02:30:14;98551.75;;;17.98;100.00
55373;BME280;41249;47.838;16.490;2022-08-18T02:32:42;98546.34;;;17.98;100.00
55373;BME280;41249;47.838;16.490;2022-08-18T02:35:09;98537.13;;;17.94;100.00
55373;BME280;41249;47.838;16.490;2022-08-18T02:37:40;98533.81;;;17.75;100.00
55373;BME280;41249;47.838;16.490;2022-08-18T02:40:09;98512.84;;;17.60;100.00
55373;BME280;41249;47.838;16.490;2022-08-18T02:42:42;98519.47;;;17.69;100.00
55373;BME280;41249;47.838;16.490;2022-08-18T02:45:10;98511.50;;;17.74;100.00
55373;BME280;41249;47.838;16.490;2022-08-18T02:47:38;98496.16;;;17.87;100.00
55373;BME280;41249;47.838;16.490;2022-08-18T02:50:06;98487.38;;;18.08;100.00
55373;BME280;41249;47.838;16.490;2022-08-18T02:52:36;98486.34;;;18.26;100.00
55373;BME280;41249;47.838;16.490;2022-08-18T02:55:06;98499.53;;;18.44;98.75
55373;BME280;41249;47.838;16.490;2022-08-18T02:57:33;98501.41;;;18.44;98.71
55373;BME280;41249;47.838;16.490;2022-08-18T03:00:00;98494.06;;;18.22;100.00
55373;BME280;41249;47.838;16.490;2022-08-18T03:02:27;98494.03;;;17.89;100.00
55373;BME280;41249;47.838;16.490;2022-08-18T03:04:54;98488.16;;;17.63;100.00
55373;BME280;41249;47.838;16.490;2022-08-18T03:07:20;98490.31;;;17.49;100.00
55373;BME280;41249;47.838;16.490;2022-08-18T03:09:47;98512.59;;;17.21;100.00
55373;BME280;41249;47.838;16.490;2022-08-18T03:12:14;98520.28;;;17.06;100.00
55373;BME280;41249;47.838;16.490;2022-08-18T03:14:41;98526.97;;;17.03;100.00
55373;BME280;41249;47.838;16.490;2022-08-18T03:17:08;98519.84;;;16.86;100.00
55373;BME280;41249;47.838;16.490;2022-08-18T03:19:35;98526.84;;;16.98;100.00
55373;BME280;41249;47.838;16.490;2022-08-18T03:22:02;98532.69;;;16.84;100.00
55373;BME280;41249;47.838;16.490;2022-08-18T03:24:51;98539.34;;;16.69;100.00
55373;BME280;41249;47.838;16.490;2022-08-18T03:27:18;98535.25;;;17.02;100.00
55373;BME280;41249;47.838;16.490;2022-08-18T03:29:44;98530.13;;;16.89;100.00
55373;BME280;41249;47.838;16.490;2022-08-18T03:32:11;98505.81;;;17.07;100.00
55373;BME280;41249;47.838;16.490;2022-08-18T03:34:38;98511.44;;;17.17;100.00
55373;BME280;41249;47.838;16.490;2022-08-18T03:37:04;98513.72;;;17.37;100.00
55373;BME280;41249;47.838;16.490;2022-08-18T03:39:31;98522.00;;;17.47;100.00
55373;BME280;41249;47.838;16.490;2022-08-18T03:41:58;98527.41;;;17.64;100.00
55373;BME280;41249;47.838;16.490;2022-08-18T03:44:29;98529.28;;;17.64;100.00
55373;BME280;41249;47.838;16.490;2022-08-18T03:46:57;98545.16;;;17.65;100.00
55373;BME280;41249;47.838;16.490;2022-08-18T03:49:24;98544.31;;;17.76;100.00
55373;BME280;41249;47.838;16.490;2022-08-18T03:51:52;98535.81;;;17.68;100.00
55373;BME280;41249;47.838;16.490;2022-08-18T03:54:19;98541.56;;;17.60;100.00
55373;BME280;41249;47.838;16.490;2022-08-18T03:56:47;98547.81;;;17.37;100.00
55373;BME280;41249;47.838;16.490;2022-08-18T03:59:20;98548.75;;;17.30;100.00
55373;BME280;41249;47.838;16.490;2022-08-18T04:01:48;98552.47;;;17.41;100.00
55373;BME280;41249;47.838;16.490;2022-08-18T04:04:23;98562.88;;;17.38;100.00
55373;BME280;41249;47.838;16.490;2022-08-18T04:07:04;98555.44;;;17.28;100.00
55373;BME280;41249;47.838;16.490;2022-08-18T04:09:32;98559.50;;;17.30;100.00
55373;BME280;41249;47.838;16.490;2022-08-18T04:12:07;98554.72;;;17.33;100.00
55373;BME280;41249;47.838;16.490;2022-08-18T04:14:45;98565.34;;;17.27;100.00
55373;BME280;41249;47.838;16.490;2022-08-18T04:17:14;98573.41;;;17.39;100.00
55373;BME280;41249;47.838;16.490;2022-08-18T04:19:41;98573.13;;;17.52;100.00
55373;BME280;41249;47.838;16.490;2022-08-18T04:22:08;98577.47;;;17.42;100.00
55373;BME280;41249;47.838;16.490;2022-08-18T04:24:42;98576.91;;;17.40;100.00
55373;BME280;41249;47.838;16.490;2022-08-18T04:27:11;98580.66;;;17.27;100.00
55373;BME280;41249;47.838;16.490;2022-08-18T04:29:38;98575.50;;;17.37;100.00
55373;BME280;41249;47.838;16.490;2022-08-18T04:32:04;98578.16;;;17.49;100.00
55373;BME280;41249;47.838;16.490;2022-08-18T04:34:32;98578.34;;;17.59;100.00
55373;BME280;41249;47.838;16.490;2022-08-18T04:36:59;98583.91;;;17.41;100.00
55373;BME280;41249;47.838;16.490;2022-08-18T04:39:27;98583.47;;;17.20;100.00
55373;BME280;41249;47.838;16.490;2022-08-18T04:41:54;98576.66;;;17.41;100.00
55373;BME280;41249;47.838;16.490;2022-08-18T04:44:21;98577.78;;;17.57;100.00
55373;BME280;41249;47.838;16.490;2022-08-18T04:46:50;98585.16;;;17.50;100.00
55373;BME280;41249;47.838;16.490;2022-08-18T04:49:20;98582.50;;;17.78;100.00
55373;BME280;41249;47.838;16.490;2022-08-18T04:51:49;98571.13;;;18.00;100.00
55373;BME280;41249;47.838;16.490;2022-08-18T04:54:54;98576.00;;;18.03;100.00
55373;BME280;41249;47.838;16.490;2022-08-18T04:57:21;98572.56;;;18.19;100.00
55373;BME280;41249;47.838;16.490;2022-08-18T04:59:50;98576.78;;;18.32;100.00
55373;BME280;41249;47.838;16.490;2022-08-18T05:02:19;98576.97;;;18.59;100.00
55373;BME280;41249;47.838;16.490;2022-08-18T05:04:47;98588.91;;;18.80;100.00
55373;BME280;41249;47.838;16.490;2022-08-18T05:07:17;98599.28;;;19.05;100.00
55373;BME280;41249;47.838;16.490;2022-08-18T05:09:45;98594.66;;;19.22;100.00
55373;BME280;41249;47.838;16.490;2022-08-18T05:12:13;98590.91;;;19.23;100.00
55373;BME280;41249;47.838;16.490;2022-08-18T05:14:42;98588.53;;;19.27;100.00
55373;BME280;41249;47.838;16.490;2022-08-18T05:17:13;98585.09;;;19.31;100.00
55373;BME280;41249;47.838;16.490;2022-08-18T05:19:41;98603.31;;;19.63;100.00
55373;BME280;41249;47.838;16.490;2022-08-18T05:22:11;98615.59;;;19.75;100.00
55373;BME280;41249;47.838;16.490;2022-08-18T05:24:44;98616.91;;;19.95;100.00
55373;BME280;41249;47.838;16.490;2022-08-18T05:27:12;98623.44;;;20.21;99.62
55373;BME280;41249;47.838;16.490;2022-08-18T05:29:39;98617.47;;;20.19;100.00
55373;BME280;41249;47.838;16.490;2022-08-18T05:32:12;98619.16;;;20.03;100.00
55373;BME280;41249;47.838;16.490;2022-08-18T05:35:11;98623.38;;;20.16;100.00
55373;BME280;41249;47.838;16.490;2022-08-18T05:40:33;98612.88;;;20.46;97.73
55373;BME280;41249;47.838;16.490;2022-08-18T05:43:00;98609.22;;;20.57;95.74
55373;BME280;41249;47.838;16.490;2022-08-18T05:45:28;98606.00;;;20.34;97.35
55373;BME280;41249;47.838;16.490;2022-08-18T05:47:58;98621.34;;;20.28;98.09
55373;BME280;41249;47.838;16.490;2022-08-18T05:50:27;98610.38;;;20.13;98.17
55373;BME280;41249;47.838;16.490;2022-08-18T05:52:57;98595.66;;;20.52;96.26
55373;BME280;41249;47.838;16.490;2022-08-18T05:55:39;98590.19;;;20.47;95.71
55373;BME280;41249;47.838;16.490;2022-08-18T05:58:30;98588.00;;;20.71;95.11
55373;BME280;41249;47.838;16.490;2022-08-18T06:01:10;98584.13;;;20.94;93.74
55373;BME280;41249;47.838;16.490;2022-08-18T06:03:49;98583.56;;;20.92;90.26
55373;BME280;41249;47.838;16.490;2022-08-18T06:06:21;98583.09;;;21.00;90.80
55373;BME280;41249;47.838;16.490;2022-08-18T06:09:16;98586.31;;;20.97;91.15
55373;BME280;41249;47.838;16.490;2022-08-18T06:11:48;98585.25;;;21.03;90.87
55373;BME280;41249;47.838;16.490;2022-08-18T06:14:15;98592.19;;;21.31;89.71
55373;BME280;41249;47.838;16.490;2022-08-18T06:22:10;98582.31;;;21.52;86.63
55373;BME280;41249;47.838;16.490;2022-08-18T06:27:36;98599.31;;;22.10;81.12
55373;BME280;41249;47.838;16.490;2022-08-18T06:30:17;98605.81;;;22.09;80.63
55373;BME280;41249;47.838;16.490;2022-08-18T06:33:15;98610.94;;;22.11;80.74
55373;BME280;41249;47.838;16.490;2022-08-18T06:41:31;98620.50;;;22.54;75.29
55373;BME280;41249;47.838;16.490;2022-08-18T06:46:55;98628.91;;;23.03;73.00
55373;BME280;41249;47.838;16.490;2022-08-18T06:52:26;98631.63;;;22.88;73.44
55373;BME280;41249;47.838;16.490;2022-08-18T06:55:00;98636.22;;;23.08;73.19
55373;BME280;41249;47.838;16.490;2022-08-18T06:57:51;98648.97;;;22.92;73.58
55373;BME280;41249;47.838;16.490;2022-08-18T07:00:22;98653.56;;;23.07;73.09
55373;BME280;41249;47.838;16.490;2022-08-18T07:02:54;98650.88;;;22.97;72.58
55373;BME280;41249;47.838;16.490;2022-08-18T07:05:26;98653.53;;;23.43;73.74
55373;BME280;41249;47.838;16.490;2022-08-18T07:08:17;98648.03;;;23.73;70.19
55373;BME280;41249;47.838;16.490;2022-08-18T07:10:47;98652.31;;;23.95;69.25
55373;BME280;41249;47.838;16.490;2022-08-18T07:13:26;98661.22;;;24.05;68.99
55373;BME280;41249;47.838;16.490;2022-08-18T07:15:55;98658.53;;;24.00;66.81
55373;BME280;41249;47.838;16.490;2022-08-18T07:18:27;98669.03;;;24.17;66.89
55373;BME280;41249;47.838;16.490;2022-08-18T07:20:59;98675.94;;;24.49;65.27
55373;BME280;41249;47.838;16.490;2022-08-18T07:23:34;98680.72;;;24.62;63.39
55373;BME280;41249;47.838;16.490;2022-08-18T07:26:10;98691.56;;;24.72;63.03
55373;BME280;41249;47.838;16.490;2022-08-18T07:31:22;98684.47;;;25.05;63.89
55373;BME280;41249;47.838;16.490;2022-08-18T07:34:00;98682.78;;;24.80;61.34
55373;BME280;41249;47.838;16.490;2022-08-18T07:36:32;98680.59;;;24.82;62.83
55373;BME280;41249;47.838;16.490;2022-08-18T07:39:12;98680.94;;;25.10;59.99
55373;BME280;41249;47.838;16.490;2022-08-18T07:41:51;98666.50;;;25.43;59.17
55373;BME280;41249;47.838;16.490;2022-08-18T07:47:03;98657.94;;;25.26;58.01
55373;BME280;41249;47.838;16.490;2022-08-18T07:49:34;98663.19;;;25.46;57.15
55373;BME280;41249;47.838;16.490;2022-08-18T07:52:20;98662.75;;;25.34;57.06
55373;BME280;41249;47.838;16.490;2022-08-18T07:55:26;98662.19;;;25.37;57.54
55373;BME280;41249;47.838;16.490;2022-08-18T08:00:51;98675.59;;;25.58;56.65
55373;BME280;41249;47.838;16.490;2022-08-18T08:13:23;98670.66;;;26.88;51.33
55373;BME280;41249;47.838;16.490;2022-08-18T08:16:36;98663.94;;;27.13;50.83
55373;BME280;41249;47.838;16.490;2022-08-18T08:19:27;98663.44;;;26.60;49.68
55373;BME280;41249;47.838;16.490;2022-08-18T08:25:00;98649.53;;;27.26;48.10
55373;BME280;41249;47.838;16.490;2022-08-18T08:28:41;98645.50;;;27.37;49.01
55373;BME280;41249;47.838;16.490;2022-08-18T08:30:46;98636.22;;;27.80;47.14
55373;BME280;41249;47.838;16.490;2022-08-18T08:33:29;98643.13;;;27.77;47.09
55373;BME280;41249;47.838;16.490;2022-08-18T08:36:10;98644.72;;;27.64;46.89
55373;BME280;41249;47.838;16.490;2022-08-18T08:38:46;98641.31;;;27.86;45.92
55373;BME280;41249;47.838;16.490;2022-08-18T08:41:21;98640.50;;;28.00;45.90
55373;BME280;41249;47.838;16.490;2022-08-18T08:46:31;98636.03;;;28.54;44.57
55373;BME280;41249;47.838;16.490;2022-08-18T08:49:10;98633.16;;;28.59;44.00
55373;BME280;41249;47.838;16.490;2022-08-18T08:52:00;98630.06;;;28.52;43.67
55373;BME280;41249;47.838;16.490;2022-08-18T08:57:08;98610.03;;;28.42;43.19
55373;BME280;41249;47.838;16.490;2022-08-18T08:59:37;98607.13;;;28.84;42.06
55373;BME280;41249;47.838;16.490;2022-08-18T09:16:44;98608.00;;;28.93;40.83
55373;BME280;41249;47.838;16.490;2022-08-18T09:22:15;98605.13;;;29.29;40.63
55373;BME280;41249;47.838;16.490;2022-08-18T09:24:49;98595.00;;;29.29;39.69
55373;BME280;41249;47.838;16.490;2022-08-18T09:27:37;98602.00;;;29.44;39.96
55373;BME280;41249;47.838;16.490;2022-08-18T09:31:17;98594.94;;;29.52;39.80
55373;BME280;41249;47.838;16.490;2022-08-18T09:38:55;98587.75;;;28.94;40.09
55373;BME280;41249;47.838;16.490;2022-08-18T09:41:49;98600.56;;;28.62;40.51
55373;BME280;41249;47.838;16.490;2022-08-18T09:50:31;98578.66;;;29.47;38.93
55373;BME280;41249;47.838;16.490;2022-08-18T09:52:58;98575.00;;;29.60;38.84
55373;BME280;41249;47.838;16.490;2022-08-18T09:55:51;98578.25;;;28.91;39.09
55373;BME280;41249;47.838;16.490;2022-08-18T10:01:32;98580.75;;;28.88;41.34
55373;BME280;41249;47.838;16.490;2022-08-18T10:06:41;98564.03;;;29.69;39.58
55373;BME280;41249;47.838;16.490;2022-08-18T10:09:45;98563.88;;;29.57;39.27
55373;BME280;41249;47.838;16.490;2022-08-18T10:12:23;98560.09;;;29.92;39.21
55373;BME280;41249;47.838;16.490;2022-08-18T10:15:03;98555.91;;;30.12;37.87
55373;BME280;41249;47.838;16.490;2022-08-18T10:20:32;98563.81;;;30.31;37.45
55373;BME280;41249;47.838;16.490;2022-08-18T10:23:08;98560.91;;;29.93;37.88
55373;BME280;41249;47.838;16.490;2022-08-18T10:28:04;98557.22;;;30.49;37.03
55373;BME280;41249;47.838;16.490;2022-08-18T10:33:07;98559.28;;;30.61;35.75
55373;BME280;41249;47.838;16.490;2022-08-18T10:35:57;98556.88;;;30.51;36.10
55373;BME280;41249;47.838;16.490;2022-08-18T10:38:28;98568.34;;;30.44;35.79
55373;BME280;41249;47.838;16.490;2022-08-18T10:41:11;98564.28;;;29.98;35.85
55373;BME280;41249;47.838;16.490;2022-08-18T10:44:01;98558.19;;;30.45;36.06
55373;BME280;41249;47.838;16.490;2022-08-18T10:46:48;98551.41;;;31.06;34.93
55373;BME280;41249;47.838;16.490;2022-08-18T10:49:19;98552.44;;;30.84;34.80
55373;BME280;41249;47.838;16.490;2022-08-18T10:52:00;98552.72;;;31.09;34.93
55373;BME280;41249;47.838;16.490;2022-08-18T11:06:22;98544.50;;;31.09;33.86
55373;BME280;41249;47.838;16.490;2022-08-18T11:08:57;98535.63;;;31.03;33.94
55373;BME280;41249;47.838;16.490;2022-08-18T11:11:36;98526.31;;;30.87;33.34
55373;BME280;41249;47.838;16.490;2022-08-18T11:20:12;98515.09;;;31.09;32.68
55373;BME280;41249;47.838;16.490;2022-08-18T11:22:53;98502.22;;;31.31;32.26
55373;BME280;41249;47.838;16.490;2022-08-18T11:25:26;98485.13;;;31.25;32.01
55373;BME280;41249;47.838;16.490;2022-08-18T11:27:54;98493.66;;;31.62;32.46
55373;BME280;41249;47.838;16.490;2022-08-18T11:30:33;98489.84;;;30.86;31.62
55373;BME280;41249;47.838;16.490;2022-08-18T11:33:05;98478.78;;;31.33;32.25
55373;BME280;41249;47.838;16.490;2022-08-18T11:35:44;98482.09;;;30.80;32.45
55373;BME280;41249;47.838;16.490;2022-08-18T11:38:13;98484.97;;;30.83;32.65
55373;BME280;41249;47.838;16.490;2022-08-18T11:41:18;98500.28;;;31.02;32.18
55373;BME280;41249;47.838;16.490;2022-08-18T11:44:17;98516.19;;;31.17;31.92
55373;BME280;41249;47.838;16.490;2022-08-18T11:46:45;98523.28;;;31.18;31.15
55373;BME280;41249;47.838;16.490;2022-08-18T11:49:36;98526.31;;;30.87;31.96
55373;BME280;41249;47.838;16.490;2022-08-18T11:52:27;98536.16;;;31.26;31.74
55373;BME280;41249;47.838;16.490;2022-08-18T11:55:03;98527.78;;;31.23;31.40
55373;BME280;41249;47.838;16.490;2022-08-18T11:57:53;98519.16;;;31.41;32.34
55373;BME280;41249;47.838;16.490;2022-08-18T12:03:27;98538.63;;;31.78;31.62
55373;BME280;41249;47.838;16.490;2022-08-18T12:05:58;98531.91;;;31.46;32.12
55373;BME280;41249;47.838;16.490;2022-08-18T12:08:32;98532.75;;;30.91;33.19
55373;BME280;41249;47.838;16.490;2022-08-18T12:11:26;98522.31;;;31.52;32.38
55373;BME280;41249;47.838;16.490;2022-08-18T12:14:22;98530.72;;;31.77;32.47
55373;BME280;41249;47.838;16.490;2022-08-18T12:17:00;98518.81;;;31.93;30.28
55373;BME280;41249;47.838;16.490;2022-08-18T12:19:28;98508.50;;;31.90;31.04
55373;BME280;41249;47.838;16.490;2022-08-18T12:22:00;98498.47;;;31.94;30.46
55373;BME280;41249;47.838;16.490;2022-08-18T12:24:37;98496.34;;;32.12;29.15
55373;BME280;41249;47.838;16.490;2022-08-18T12:27:05;98490.78;;;32.66;28.91
55373;BME280;41249;47.838;16.490;2022-08-18T12:29:48;98482.06;;;32.64;29.97
55373;BME280;41249;47.838;16.490;2022-08-18T12:32:15;98475.78;;;31.97;30.31
55373;BME280;41249;47.838;16.490;2022-08-18T12:35:03;98464.31;;;32.62;28.77
55373;BME280;41249;47.838;16.490;2022-08-18T12:37:35;98461.09;;;32.72;28.86
55373;BME280;41249;47.838;16.490;2022-08-18T12:40:23;98444.06;;;32.78;28.39
55373;BME280;41249;47.838;16.490;2022-08-18T12:42:52;98454.94;;;32.75;28.39
55373;BME280;41249;47.838;16.490;2022-08-18T12:45:22;98454.94;;;32.75;28.75
55373;BME280;41249;47.838;16.490;2022-08-18T12:47:50;98464.84;;;32.43;28.87
55373;BME280;41249;47.838;16.490;2022-08-18T12:50:18;98455.25;;;32.61;28.15
55373;BME280;41249;47.838;16.490;2022-08-18T12:52:45;98455.59;;;32.26;29.68
55373;BME280;41249;47.838;16.490;2022-08-18T12:55:12;98446.34;;;32.76;30.76
55373;BME280;41249;47.838;16.490;2022-08-18T12:57:47;98443.25;;;33.02;29.33
55373;BME280;41249;47.838;16.490;2022-08-18T13:00:35;98431.41;;;32.53;29.19
55373;BME280;41249;47.838;16.490;2022-08-18T13:03:02;98447.25;;;32.68;29.81
55373;BME280;41249;47.838;16.490;2022-08-18T13:05:29;98446.81;;;32.91;29.32
55373;BME280;41249;47.838;16.490;2022-08-18T13:08:01;98451.41;;;32.87;29.20
55373;BME280;41249;47.838;16.490;2022-08-18T13:10:31;98473.06;;;32.88;28.44
55373;BME280;41249;47.838;16.490;2022-08-18T13:13:16;98479.41;;;32.89;28.69
55373;BME280;41249;47.838;16.490;2022-08-18T13:15:44;98473.97;;;32.80;28.71
55373;BME280;41249;47.838;16.490;2022-08-18T13:18:26;98474.06;;;32.71;28.81
55373;BME280;41249;47.838;16.490;2022-08-18T13:20:58;98459.31;;;32.88;28.28
55373;BME280;41249;47.838;16.490;2022-08-18T13:23:26;98462.31;;;32.83;28.27
55373;BME280;41249;47.838;16.490;2022-08-18T13:25:54;98457.78;;;32.54;28.14
55373;BME280;41249;47.838;16.490;2022-08-18T13:28:29;98456.66;;;32.79;28.40
55373;BME280;41249;47.838;16.490;2022-08-18T13:31:04;98463.50;;;32.73;28.47
55373;BME280;41249;47.838;16.490;2022-08-18T13:33:31;98457.69;;;32.87;28.70
55373;BME280;41249;47.838;16.490;2022-08-18T13:36:19;98457.03;;;32.90;28.76
55373;BME280;41249;47.838;16.490;2022-08-18T13:38:49;98453.34;;;32.98;28.16
55373;BME280;41249;47.838;16.490;2022-08-18T13:41:20;98457.34;;;32.76;28.53
55373;BME280;41249;47.838;16.490;2022-08-18T13:43:50;98441.19;;;33.12;28.05
55373;BME280;41249;47.838;16.490;2022-08-18T13:46:18;98442.78;;;32.88;28.33
55373;BME280;41249;47.838;16.490;2022-08-18T13:48:55;98439.72;;;32.90;28.44
55373;BME280;41249;47.838;16.490;2022-08-18T13:51:28;98424.31;;;33.01;28.33
55373;BME280;41249;47.838;16.490;2022-08-18T13:53:56;98445.75;;;32.71;27.44
55373;BME280;41249;47.838;16.490;2022-08-18T13:56:43;98446.47;;;32.80;29.01
55373;BME280;41249;47.838;16.490;2022-08-18T13:59:18;98449.91;;;33.01;28.22
55373;BME280;41249;47.838;16.490;2022-08-18T14:01:51;98448.06;;;33.05;28.22
55373;BME280;41249;47.838;16.490;2022-08-18T14:04:20;98443.28;;;32.90;28.53
55373;BME280;41249;47.838;16.490;2022-08-18T14:06:52;98447.38;;;33.08;28.94
55373;BME280;41249;47.838;16.490;2022-08-18T14:09:24;98449.19;;;33.17;28.77
55373;BME280;41249;47.838;16.490;2022-08-18T14:12:12;98451.06;;;33.00;29.39
55373;BME280;41249;47.838;16.490;2022-08-18T14:14:53;98445.69;;;33.04;28.90
55373;BME280;41249;47.838;16.490;2022-08-18T14:17:24;98440.75;;;32.97;28.75
55373;BME280;41249;47.838;16.490;2022-08-18T14:19:51;98436.50;;;33.00;29.45
55373;BME280;41249;47.838;16.490;2022-08-18T14:22:50;98444.06;;;32.91;29.05
55373;BME280;41249;47.838;16.490;2022-08-18T14:25:35;98438.91;;;32.89;28.63
55373;BME280;41249;47.838;16.490;2022-08-18T14:28:21;98446.56;;;33.08;28.74
55373;BME280;41249;47.838;16.490;2022-08-18T14:30:51;98457.72;;;33.12;28.38
55373;BME280;41249;47.838;16.490;2022-08-18T14:33:21;98463.91;;;33.08;28.86
55373;BME280;41249;47.838;16.490;2022-08-18T14:36:09;98480.91;;;33.11;29.47
55373;BME280;41249;47.838;16.490;2022-08-18T14:38:38;98479.28;;;33.22;29.55
55373;BME280;41249;47.838;16.490;2022-08-18T14:41:09;98476.63;;;33.13;29.51
55373;BME280;41249;47.838;16.490;2022-08-18T14:43:39;98476.28;;;33.15;29.04
55373;BME280;41249;47.838;16.490;2022-08-18T14:46:26;98468.72;;;33.36;28.35
55373;BME280;41249;47.838;16.490;2022-08-18T14:48:58;98470.56;;;33.20;29.01
55373;BME280;41249;47.838;16.490;2022-08-18T14:51:24;98470.66;;;33.48;28.97
55373;BME280;41249;47.838;16.490;2022-08-18T14:53:53;98458.66;;;33.28;28.96
55373;BME280;41249;47.838;16.490;2022-08-18T14:56:21;98453.59;;;33.30;28.13
55373;BME280;41249;47.838;16.490;2022-08-18T14:58:54;98451.97;;;33.41;28.58
55373;BME280;41249;47.838;16.490;2022-08-18T15:01:21;98451.53;;;33.27;28.41
55373;BME280;41249;47.838;16.490;2022-08-18T15:03:48;98450.84;;;33.18;28.04
55373;BME280;41249;47.838;16.490;2022-08-18T15:06:16;98449.09;;;33.13;28.19
55373;BME280;41249;47.838;16.490;2022-08-18T15:08:53;98431.41;;;33.39;27.96
55373;BME280;41249;47.838;16.490;2022-08-18T15:11:23;98443.50;;;33.34;26.88
55373;BME280;41249;47.838;16.490;2022-08-18T15:13:50;98442.84;;;33.53;26.96
55373;BME280;41249;47.838;16.490;2022-08-18T15:16:21;98452.75;;;33.17;28.62
55373;BME280;41249;47.838;16.490;2022-08-18T15:18:57;98458.97;;;32.90;28.53